sensor_id;sensor_type;location;lat;lon;timestamp;P1;durP1;ratioP1;P2;durP2;ratioP2
81221;SDS011;70691;52.492;13.420;2023-11-19T00:00:29;13.55;;;7.90;;
81221;SDS011;70691;52.492;13.420;2023-11-19T00:02:55;15.18;;;7.68;;
81221;SDS011;70691;52.492;13.420;2023-11-19T00:05:21;16.77;;;9.43;;
81221;SDS011;70691;52.492;13.420;2023-11-19T00:07:46;11.93;;;6.97;;
81221;SDS011;70691;52.492;13.420;2023-11-19T00:10:13;13.77;;;8.88;;
81221;SDS011;70691;52.492;13.420;2023-11-19T00:12:44;19.20;;;9.25;;
81221;SDS011;70691;52.492;13.420;2023-11-19T00:15:11;19.73;;;9.07;;
81221;SDS011;70691;52.492;13.420;2023-11-19T00:17:38;19.42;;;9.90;;
81221;SDS011;70691;52.492;13.420;2023-11-19T00:20:06;14.52;;;7.18;;
81221;SDS011;70691;52.492;13.420;2023-11-19T00:22:33;13.40;;;6.55;;
81221;SDS011;70691;52.492;13.420;2023-11-19T00:24:59;12.32;;;7.60;;
81221;SDS011;70691;52.492;13.420;2023-11-19T00:27:25;14.98;;;7.70;;
81221;SDS011;70691;52.492;13.420;2023-11-19T00:29:51;13.30;;;7.63;;
81221;SDS011;70691;52.492;13.420;2023-11-19T00:32:16;11.18;;;6.57;;
81221;SDS011;70691;52.492;13.420;2023-11-19T00:34:45;16.30;;;7.05;;
81221;SDS011;70691;52.492;13.420;2023-11-19T00:39:41;13.18;;;7.75;;
81221;SDS011;70691;52.492;13.420;2023-11-19T00:42:08;12.60;;;6.25;;
81221;SDS011;70691;52.492;13.420;2023-11-19T00:44:35;11.77;;;6.78;;
81221;SDS011;70691;52.492;13.420;2023-11-19T00:47:01;15.65;;;7.53;;
81221;SDS011;70691;52.492;13.420;2023-11-19T00:49:27;14.82;;;7.60;;
81221;SDS011;70691;52.492;13.420;2023-11-19T00:51:53;16.40;;;8.80;;
81221;SDS011;70691;52.492;13.420;2023-11-19T00:54:18;21.25;;;9.18;;
81221;SDS011;70691;52.492;13.420;2023-11-19T00:56:44;16.58;;;8.70;;
81221;SDS011;70691;52.492;13.420;2023-11-19T00:59:10;18.67;;;8.25;;
81221;SDS011;70691;52.492;13.420;2023-11-19T01:01:35;17.20;;;7.88;;
81221;SDS011;70691;52.492;13.420;2023-11-19T01:04:01;14.70;;;8.35;;
81221;SDS011;70691;52.492;13.420;2023-11-19T01:06:30;14.88;;;7.55;;
81221;SDS011;70691;52.492;13.420;2023-11-19T01:08:56;16.25;;;7.82;;
81221;SDS011;70691;52.492;13.420;2023-11-19T01:11:22;12.73;;;6.80;;
81221;SDS011;70691;52.492;13.420;2023-11-19T01:13:48;9.60;;;5.95;;
81221;SDS011;70691;52.492;13.420;2023-11-19T01:16:15;9.02;;;6.88;;
81221;SDS011;70691;52.492;13.420;2023-11-19T01:18:41;8.70;;;5.72;;
81221;SDS011;70691;52.492;13.420;2023-11-19T01:21:06;10.00;;;5.82;;
81221;SDS011;70691;52.492;13.420;2023-11-19T01:23:33;11.60;;;6.35;;
81221;SDS011;70691;52.492;13.420;2023-11-19T01:25:59;13.32;;;7.05;;
81221;SDS011;70691;52.492;13.420;2023-11-19T01:28:25;13.15;;;7.45;;
81221;SDS011;70691;52.492;13.420;2023-11-19T01:30:50;10.95;;;5.97;;
81221;SDS011;70691;52.492;13.420;2023-11-19T01:33:16;11.02;;;6.63;;
81221;SDS011;70691;52.492;13.420;2023-11-19T01:35:42;11.57;;;6.40;;
81221;SDS011;70691;52.492;13.420;2023-11-19T01:38:07;10.80;;;7.00;;
81221;SDS011;70691;52.492;13.420;2023-11-19T01:40:36;11.68;;;7.30;;
81221;SDS011;70691;52.492;13.420;2023-11-19T01:43:03;11.45;;;6.53;;
81221;SDS011;70691;52.492;13.420;2023-11-19T01:45:29;8.25;;;6.30;;
81221;SDS011;70691;52.492;13.420;2023-11-19T01:47:58;11.27;;;6.32;;
81221;SDS011;70691;52.492;13.420;2023-11-19T01:50:28;9.30;;;6.13;;
81221;SDS011;70691;52.492;13.420;2023-11-19T01:52:56;10.45;;;5.72;;
81221;SDS011;70691;52.492;13.420;2023-11-19T01:55:22;9.13;;;5.32;;
81221;SDS011;70691;52.492;13.420;2023-11-19T01:57:50;11.43;;;6.03;;
81221;SDS011;70691;52.492;13.420;2023-11-19T02:00:18;10.43;;;5.85;;
81221;SDS011;70691;52.492;13.420;2023-11-19T02:02:45;10.30;;;5.60;;
81221;SDS011;70691;52.492;13.420;2023-11-19T02:05:11;14.80;;;6.28;;
81221;SDS011;70691;52.492;13.420;2023-11-19T02:07:38;12.32;;;6.20;;
81221;SDS011;70691;52.492;13.420;2023-11-19T02:10:04;10.57;;;5.43;;
81221;SDS011;70691;52.492;13.420;2023-11-19T02:12:30;9.25;;;4.82;;
81221;SDS011;70691;52.492;13.420;2023-11-19T02:15:00;8.73;;;4.85;;
81221;SDS011;70691;52.492;13.420;2023-11-19T02:17:28;11.05;;;5.78;;
81221;SDS011;70691;52.492;13.420;2023-11-19T02:19:56;11.98;;;6.25;;
81221;SDS011;70691;52.492;13.420;2023-11-19T02:22:22;11.50;;;6.30;;
81221;SDS011;70691;52.492;13.420;2023-11-19T02:24:47;11.85;;;6.72;;
81221;SDS011;70691;52.492;13.420;2023-11-19T02:27:18;11.98;;;6.22;;
81221;SDS011;70691;52.492;13.420;2023-11-19T02:29:56;11.80;;;5.90;;
81221;SDS011;70691;52.492;13.420;2023-11-19T02:32:22;10.68;;;5.32;;
81221;SDS011;70691;52.492;13.420;2023-11-19T02:34:48;10.18;;;5.43;;
81221;SDS011;70691;52.492;13.420;2023-11-19T02:37:14;8.20;;;5.38;;
81221;SDS011;70691;52.492;13.420;2023-11-19T02:39:40;9.27;;;5.50;;
81221;SDS011;70691;52.492;13.420;2023-11-19T02:42:06;9.82;;;5.35;;
81221;SDS011;70691;52.492;13.420;2023-11-19T02:44:33;9.07;;;4.65;;
81221;SDS011;70691;52.492;13.420;2023-11-19T02:46:59;7.90;;;4.75;;
81221;SDS011;70691;52.492;13.420;2023-11-19T02:49:25;6.60;;;4.32;;
81221;SDS011;70691;52.492;13.420;2023-11-19T02:51:51;8.27;;;4.53;;
81221;SDS011;70691;52.492;13.420;2023-11-19T02:54:16;6.90;;;4.57;;
81221;SDS011;70691;52.492;13.420;2023-11-19T02:56:42;8.80;;;5.53;;
81221;SDS011;70691;52.492;13.420;2023-11-19T02:59:08;6.90;;;4.32;;
81221;SDS011;70691;52.492;13.420;2023-11-19T03:01:43;5.05;;;3.53;;
81221;SDS011;70691;52.492;13.420;2023-11-19T03:04:15;6.82;;;4.18;;
81221;SDS011;70691;52.492;13.420;2023-11-19T03:06:42;6.63;;;4.03;;
81221;SDS011;70691;52.492;13.420;2023-11-19T03:09:07;6.47;;;4.20;;
81221;SDS011;70691;52.492;13.420;2023-11-19T03:11:35;7.38;;;4.25;;
81221;SDS011;70691;52.492;13.420;2023-11-19T03:14:01;5.97;;;3.85;;
81221;SDS011;70691;52.492;13.420;2023-11-19T03:16:28;7.45;;;4.30;;
81221;SDS011;70691;52.492;13.420;2023-11-19T03:18:54;9.60;;;4.28;;
81221;SDS011;70691;52.492;13.420;2023-11-19T03:21:26;6.60;;;3.60;;
81221;SDS011;70691;52.492;13.420;2023-11-19T03:23:56;5.70;;;4.03;;
81221;SDS011;70691;52.492;13.420;2023-11-19T03:26:25;6.07;;;3.70;;
81221;SDS011;70691;52.492;13.420;2023-11-19T03:28:52;5.90;;;4.03;;
81221;SDS011;70691;52.492;13.420;2023-11-19T03:31:18;7.43;;;4.40;;
81221;SDS011;70691;52.492;13.420;2023-11-19T03:33:43;7.75;;;4.03;;
81221;SDS011;70691;52.492;13.420;2023-11-19T03:36:10;7.28;;;3.78;;
81221;SDS011;70691;52.492;13.420;2023-11-19T03:38:35;7.97;;;4.13;;
81221;SDS011;70691;52.492;13.420;2023-11-19T03:41:06;6.75;;;4.00;;
81221;SDS011;70691;52.492;13.420;2023-11-19T03:43:38;6.57;;;4.20;;
81221;SDS011;70691;52.492;13.420;2023-11-19T03:46:15;7.63;;;3.97;;
81221;SDS011;70691;52.492;13.420;2023-11-19T03:48:44;9.55;;;4.15;;
81221;SDS011;70691;52.492;13.420;2023-11-19T03:51:12;7.75;;;4.68;;
81221;SDS011;70691;52.492;13.420;2023-11-19T03:53:43;7.43;;;4.57;;
81221;SDS011;70691;52.492;13.420;2023-11-19T03:56:10;8.47;;;4.47;;
81221;SDS011;70691;52.492;13.420;2023-11-19T03:58:36;7.82;;;4.95;;
81221;SDS011;70691;52.492;13.420;2023-11-19T04:01:03;11.77;;;5.53;;
81221;SDS011;70691;52.492;13.420;2023-11-19T04:03:47;12.10;;;5.40;;
81221;SDS011;70691;52.492;13.420;2023-11-19T04:06:12;10.35;;;5.03;;
81221;SDS011;70691;52.492;13.420;2023-11-19T04:08:38;9.10;;;5.40;;
81221;SDS011;70691;52.492;13.420;2023-11-19T04:11:04;7.35;;;4.75;;
81221;SDS011;70691;52.492;13.420;2023-11-19T04:13:30;7.75;;;4.72;;
81221;SDS011;70691;52.492;13.420;2023-11-19T04:15:56;8.95;;;5.35;;
81221;SDS011;70691;52.492;13.420;2023-11-19T04:18:21;6.63;;;4.75;;
81221;SDS011;70691;52.492;13.420;2023-11-19T04:20:47;10.38;;;4.57;;
81221;SDS011;70691;52.492;13.420;2023-11-19T04:23:13;7.03;;;4.25;;
81221;SDS011;70691;52.492;13.420;2023-11-19T04:25:38;10.57;;;4.75;;
81221;SDS011;70691;52.492;13.420;2023-11-19T04:28:04;7.63;;;4.85;;
81221;SDS011;70691;52.492;13.420;2023-11-19T04:30:29;7.43;;;4.95;;
81221;SDS011;70691;52.492;13.420;2023-11-19T04:32:57;7.20;;;4.65;;
81221;SDS011;70691;52.492;13.420;2023-11-19T04:35:22;7.18;;;4.20;;
81221;SDS011;70691;52.492;13.420;2023-11-19T04:37:48;9.20;;;4.47;;
81221;SDS011;70691;52.492;13.420;2023-11-19T04:40:14;8.63;;;4.95;;
81221;SDS011;70691;52.492;13.420;2023-11-19T04:42:40;14.23;;;5.50;;
81221;SDS011;70691;52.492;13.420;2023-11-19T04:45:05;6.75;;;4.63;;
81221;SDS011;70691;52.492;13.420;2023-11-19T04:47:32;7.38;;;4.68;;
81221;SDS011;70691;52.492;13.420;2023-11-19T04:49:59;9.27;;;4.85;;
81221;SDS011;70691;52.492;13.420;2023-11-19T04:52:25;7.07;;;4.70;;
81221;SDS011;70691;52.492;13.420;2023-11-19T04:54:50;8.98;;;4.90;;
81221;SDS011;70691;52.492;13.420;2023-11-19T04:57:16;8.23;;;4.78;;
81221;SDS011;70691;52.492;13.420;2023-11-19T04:59:42;12.60;;;5.82;;
81221;SDS011;70691;52.492;13.420;2023-11-19T05:02:08;9.57;;;4.95;;
81221;SDS011;70691;52.492;13.420;2023-11-19T05:04:34;9.32;;;4.68;;
81221;SDS011;70691;52.492;13.420;2023-11-19T05:07:00;9.00;;;5.95;;
81221;SDS011;70691;52.492;13.420;2023-11-19T05:09:26;7.25;;;4.65;;
81221;SDS011;70691;52.492;13.420;2023-11-19T05:11:51;10.63;;;4.88;;
81221;SDS011;70691;52.492;13.420;2023-11-19T05:14:17;8.60;;;4.90;;
81221;SDS011;70691;52.492;13.420;2023-11-19T05:16:46;10.27;;;5.33;;
81221;SDS011;70691;52.492;13.420;2023-11-19T05:19:12;10.48;;;5.60;;
81221;SDS011;70691;52.492;13.420;2023-11-19T05:21:41;11.32;;;5.43;;
81221;SDS011;70691;52.492;13.420;2023-11-19T05:24:10;12.40;;;5.10;;
81221;SDS011;70691;52.492;13.420;2023-11-19T05:26:36;10.35;;;4.85;;
81221;SDS011;70691;52.492;13.420;2023-11-19T05:29:03;10.20;;;5.05;;
81221;SDS011;70691;52.492;13.420;2023-11-19T05:31:29;11.52;;;5.47;;
81221;SDS011;70691;52.492;13.420;2023-11-19T05:33:55;13.25;;;5.50;;
81221;SDS011;70691;52.492;13.420;2023-11-19T05:36:20;9.35;;;4.68;;
81221;SDS011;70691;52.492;13.420;2023-11-19T05:38:46;9.70;;;5.50;;
81221;SDS011;70691;52.492;13.420;2023-11-19T05:41:12;7.50;;;4.50;;
81221;SDS011;70691;52.492;13.420;2023-11-19T05:43:37;7.40;;;4.53;;
81221;SDS011;70691;52.492;13.420;2023-11-19T05:46:05;7.43;;;4.55;;
81221;SDS011;70691;52.492;13.420;2023-11-19T05:48:31;16.38;;;5.35;;
81221;SDS011;70691;52.492;13.420;2023-11-19T05:50:57;7.85;;;4.53;;
81221;SDS011;70691;52.492;13.420;2023-11-19T05:53:22;10.38;;;5.68;;
81221;SDS011;70691;52.492;13.420;2023-11-19T05:55:48;8.23;;;5.03;;
81221;SDS011;70691;52.492;13.420;2023-11-19T05:58:19;9.73;;;5.07;;
81221;SDS011;70691;52.492;13.420;2023-11-19T06:00:50;6.80;;;4.65;;
81221;SDS011;70691;52.492;13.420;2023-11-19T06:03:16;8.18;;;4.60;;
81221;SDS011;70691;52.492;13.420;2023-11-19T06:05:44;7.18;;;5.25;;
81221;SDS011;70691;52.492;13.420;2023-11-19T06:08:11;6.55;;;4.30;;
81221;SDS011;70691;52.492;13.420;2023-11-19T06:10:38;8.80;;;3.85;;
81221;SDS011;70691;52.492;13.420;2023-11-19T06:13:04;7.25;;;4.72;;
81221;SDS011;70691;52.492;13.420;2023-11-19T06:15:30;7.72;;;4.97;;
81221;SDS011;70691;52.492;13.420;2023-11-19T06:17:57;6.30;;;4.28;;
81221;SDS011;70691;52.492;13.420;2023-11-19T06:20:25;8.10;;;4.88;;
81221;SDS011;70691;52.492;13.420;2023-11-19T06:22:52;7.60;;;4.85;;
81221;SDS011;70691;52.492;13.420;2023-11-19T06:25:18;7.05;;;4.15;;
81221;SDS011;70691;52.492;13.420;2023-11-19T06:27:43;6.35;;;4.28;;
81221;SDS011;70691;52.492;13.420;2023-11-19T06:30:09;6.13;;;3.92;;
81221;SDS011;70691;52.492;13.420;2023-11-19T06:32:36;6.30;;;4.25;;
81221;SDS011;70691;52.492;13.420;2023-11-19T06:35:02;6.65;;;4.60;;
81221;SDS011;70691;52.492;13.420;2023-11-19T06:37:29;9.25;;;4.57;;
81221;SDS011;70691;52.492;13.420;2023-11-19T06:39:55;6.45;;;3.83;;
81221;SDS011;70691;52.492;13.420;2023-11-19T06:42:21;5.60;;;3.70;;
81221;SDS011;70691;52.492;13.420;2023-11-19T06:44:47;6.75;;;4.05;;
81221;SDS011;70691;52.492;13.420;2023-11-19T06:47:12;7.80;;;4.95;;
81221;SDS011;70691;52.492;13.420;2023-11-19T06:49:38;8.55;;;4.45;;
81221;SDS011;70691;52.492;13.420;2023-11-19T06:52:04;9.75;;;5.90;;
81221;SDS011;70691;52.492;13.420;2023-11-19T06:54:29;6.53;;;4.15;;
81221;SDS011;70691;52.492;13.420;2023-11-19T06:56:56;5.25;;;3.35;;
81221;SDS011;70691;52.492;13.420;2023-11-19T06:59:22;6.72;;;4.03;;
81221;SDS011;70691;52.492;13.420;2023-11-19T07:01:48;6.53;;;3.78;;
81221;SDS011;70691;52.492;13.420;2023-11-19T07:04:14;7.35;;;4.38;;
81221;SDS011;70691;52.492;13.420;2023-11-19T07:06:39;6.55;;;3.88;;
81221;SDS011;70691;52.492;13.420;2023-11-19T07:09:08;4.95;;;3.42;;
81221;SDS011;70691;52.492;13.420;2023-11-19T07:11:40;6.50;;;4.45;;
81221;SDS011;70691;52.492;13.420;2023-11-19T07:14:07;5.97;;;3.88;;
81221;SDS011;70691;52.492;13.420;2023-11-19T07:16:33;6.50;;;4.60;;
81221;SDS011;70691;52.492;13.420;2023-11-19T07:19:02;6.82;;;4.32;;
81221;SDS011;70691;52.492;13.420;2023-11-19T07:21:28;6.65;;;3.88;;
81221;SDS011;70691;52.492;13.420;2023-11-19T07:23:56;7.72;;;4.45;;
81221;SDS011;70691;52.492;13.420;2023-11-19T07:26:22;7.95;;;4.70;;
81221;SDS011;70691;52.492;13.420;2023-11-19T07:28:49;5.25;;;3.38;;
81221;SDS011;70691;52.492;13.420;2023-11-19T07:31:15;5.18;;;3.60;;
81221;SDS011;70691;52.492;13.420;2023-11-19T07:33:40;5.47;;;3.67;;
81221;SDS011;70691;52.492;13.420;2023-11-19T07:36:09;5.55;;;3.90;;
81221;SDS011;70691;52.492;13.420;2023-11-19T07:38:35;5.57;;;3.88;;
81221;SDS011;70691;52.492;13.420;2023-11-19T07:41:01;6.63;;;4.22;;
81221;SDS011;70691;52.492;13.420;2023-11-19T07:43:27;8.18;;;4.45;;
81221;SDS011;70691;52.492;13.420;2023-11-19T07:45:53;7.15;;;4.10;;
81221;SDS011;70691;52.492;13.420;2023-11-19T07:48:19;8.32;;;5.13;;
81221;SDS011;70691;52.492;13.420;2023-11-19T07:50:51;9.97;;;5.27;;
81221;SDS011;70691;52.492;13.420;2023-11-19T07:53:18;13.02;;;7.75;;
81221;SDS011;70691;52.492;13.420;2023-11-19T07:55:44;10.10;;;6.57;;
81221;SDS011;70691;52.492;13.420;2023-11-19T07:58:11;10.07;;;6.07;;
81221;SDS011;70691;52.492;13.420;2023-11-19T08:00:36;11.63;;;7.75;;
81221;SDS011;70691;52.492;13.420;2023-11-19T08:03:03;11.77;;;7.00;;
81221;SDS011;70691;52.492;13.420;2023-11-19T08:05:29;11.05;;;5.65;;
81221;SDS011;70691;52.492;13.420;2023-11-19T08:07:55;10.52;;;5.75;;
81221;SDS011;70691;52.492;13.420;2023-11-19T08:10:21;10.35;;;6.07;;
81221;SDS011;70691;52.492;13.420;2023-11-19T08:12:47;9.70;;;6.43;;
81221;SDS011;70691;52.492;13.420;2023-11-19T08:15:13;9.63;;;5.45;;
81221;SDS011;70691;52.492;13.420;2023-11-19T08:17:39;6.45;;;4.75;;
81221;SDS011;70691;52.492;13.420;2023-11-19T08:20:05;6.55;;;4.28;;
81221;SDS011;70691;52.492;13.420;2023-11-19T08:22:35;5.63;;;3.72;;
81221;SDS011;70691;52.492;13.420;2023-11-19T08:25:01;15.90;;;8.68;;
81221;SDS011;70691;52.492;13.420;2023-11-19T08:27:27;7.20;;;5.25;;
81221;SDS011;70691;52.492;13.420;2023-11-19T08:29:53;10.82;;;5.45;;
81221;SDS011;70691;52.492;13.420;2023-11-19T08:32:23;8.50;;;4.78;;
81221;SDS011;70691;52.492;13.420;2023-11-19T08:34:49;6.78;;;4.45;;
81221;SDS011;70691;52.492;13.420;2023-11-19T08:37:15;8.23;;;5.32;;
81221;SDS011;70691;52.492;13.420;2023-11-19T08:39:43;12.43;;;7.45;;
81221;SDS011;70691;52.492;13.420;2023-11-19T08:42:08;8.20;;;5.10;;
81221;SDS011;70691;52.492;13.420;2023-11-19T08:44:34;8.45;;;4.45;;
81221;SDS011;70691;52.492;13.420;2023-11-19T08:47:00;12.07;;;4.32;;
81221;SDS011;70691;52.492;13.420;2023-11-19T08:49:26;6.75;;;4.38;;
81221;SDS011;70691;52.492;13.420;2023-11-19T08:51:51;5.68;;;4.00;;
81221;SDS011;70691;52.492;13.420;2023-11-19T08:54:17;7.28;;;4.25;;
81221;SDS011;70691;52.492;13.420;2023-11-19T08:56:42;5.88;;;3.88;;
81221;SDS011;70691;52.492;13.420;2023-11-19T08:59:08;10.10;;;4.90;;
81221;SDS011;70691;52.492;13.420;2023-11-19T09:01:34;6.18;;;4.25;;
81221;SDS011;70691;52.492;13.420;2023-11-19T09:03:59;5.40;;;2.97;;
81221;SDS011;70691;52.492;13.420;2023-11-19T09:06:25;5.68;;;3.30;;
81221;SDS011;70691;52.492;13.420;2023-11-19T09:08:51;6.63;;;3.08;;
81221;SDS011;70691;52.492;13.420;2023-11-19T09:11:17;5.00;;;3.53;;
81221;SDS011;70691;52.492;13.420;2023-11-19T09:13:42;4.53;;;2.90;;
81221;SDS011;70691;52.492;13.420;2023-11-19T09:16:11;3.42;;;2.42;;
81221;SDS011;70691;52.492;13.420;2023-11-19T09:18:37;6.00;;;3.80;;
81221;SDS011;70691;52.492;13.420;2023-11-19T09:21:02;4.97;;;3.07;;
81221;SDS011;70691;52.492;13.420;2023-11-19T09:23:28;6.38;;;3.72;;
81221;SDS011;70691;52.492;13.420;2023-11-19T09:25:57;7.50;;;2.80;;
81221;SDS011;70691;52.492;13.420;2023-11-19T09:28:23;8.90;;;4.25;;
81221;SDS011;70691;52.492;13.420;2023-11-19T09:30:48;9.18;;;4.30;;
81221;SDS011;70691;52.492;13.420;2023-11-19T09:33:14;6.97;;;3.00;;
81221;SDS011;70691;52.492;13.420;2023-11-19T09:35:40;7.00;;;3.40;;
81221;SDS011;70691;52.492;13.420;2023-11-19T09:38:05;5.68;;;3.20;;
81221;SDS011;70691;52.492;13.420;2023-11-19T09:40:31;5.47;;;3.40;;
81221;SDS011;70691;52.492;13.420;2023-11-19T09:42:57;4.88;;;3.38;;
81221;SDS011;70691;52.492;13.420;2023-11-19T09:45:22;6.65;;;3.05;;
81221;SDS011;70691;52.492;13.420;2023-11-19T09:47:52;4.65;;;2.92;;
81221;SDS011;70691;52.492;13.420;2023-11-19T09:50:20;4.70;;;3.08;;
81221;SDS011;70691;52.492;13.420;2023-11-19T09:52:46;4.40;;;2.80;;
81221;SDS011;70691;52.492;13.420;2023-11-19T09:55:12;3.30;;;2.35;;
81221;SDS011;70691;52.492;13.420;2023-11-19T09:57:39;4.90;;;2.33;;
81221;SDS011;70691;52.492;13.420;2023-11-19T10:00:07;4.43;;;2.58;;
81221;SDS011;70691;52.492;13.420;2023-11-19T10:02:35;3.92;;;2.33;;
81221;SDS011;70691;52.492;13.420;2023-11-19T10:05:04;4.70;;;2.50;;
81221;SDS011;70691;52.492;13.420;2023-11-19T10:07:31;6.45;;;2.75;;
81221;SDS011;70691;52.492;13.420;2023-11-19T10:10:01;5.53;;;2.75;;
81221;SDS011;70691;52.492;13.420;2023-11-19T10:12:29;3.85;;;2.30;;
81221;SDS011;70691;52.492;13.420;2023-11-19T10:14:58;5.75;;;2.22;;
81221;SDS011;70691;52.492;13.420;2023-11-19T10:17:27;5.72;;;1.92;;
81221;SDS011;70691;52.492;13.420;2023-11-19T10:19:54;5.97;;;2.33;;
81221;SDS011;70691;52.492;13.420;2023-11-19T10:22:22;5.63;;;1.80;;
81221;SDS011;70691;52.492;13.420;2023-11-19T10:24:49;5.50;;;3.20;;
81221;SDS011;70691;52.492;13.420;2023-11-19T10:27:14;3.35;;;1.98;;
81221;SDS011;70691;52.492;13.420;2023-11-19T10:29:41;3.25;;;2.08;;
81221;SDS011;70691;52.492;13.420;2023-11-19T10:32:12;5.30;;;1.75;;
81221;SDS011;70691;52.492;13.420;2023-11-19T10:34:39;3.88;;;1.80;;
81221;SDS011;70691;52.492;13.420;2023-11-19T10:37:06;3.38;;;2.00;;
81221;SDS011;70691;52.492;13.420;2023-11-19T10:42:18;3.95;;;1.70;;
81221;SDS011;70691;52.492;13.420;2023-11-19T10:44:44;4.72;;;1.90;;
81221;SDS011;70691;52.492;13.420;2023-11-19T10:47:09;4.85;;;1.60;;
81221;SDS011;70691;52.492;13.420;2023-11-19T10:49:36;5.13;;;2.00;;
81221;SDS011;70691;52.492;13.420;2023-11-19T10:52:03;6.45;;;1.95;;
81221;SDS011;70691;52.492;13.420;2023-11-19T10:54:32;3.73;;;1.90;;
81221;SDS011;70691;52.492;13.420;2023-11-19T10:56:59;7.65;;;2.30;;
81221;SDS011;70691;52.492;13.420;2023-11-19T10:59:28;8.93;;;2.13;;
81221;SDS011;70691;52.492;13.420;2023-11-19T11:01:59;6.13;;;2.42;;
81221;SDS011;70691;52.492;13.420;2023-11-19T11:04:30;6.07;;;1.77;;
81221;SDS011;70691;52.492;13.420;2023-11-19T11:07:04;8.77;;;2.42;;
81221;SDS011;70691;52.492;13.420;2023-11-19T11:09:32;5.60;;;2.10;;
81221;SDS011;70691;52.492;13.420;2023-11-19T11:11:58;8.65;;;2.40;;
81221;SDS011;70691;52.492;13.420;2023-11-19T11:14:25;6.15;;;2.13;;
81221;SDS011;70691;52.492;13.420;2023-11-19T11:16:52;6.93;;;2.10;;
81221;SDS011;70691;52.492;13.420;2023-11-19T11:19:18;13.68;;;2.88;;
81221;SDS011;70691;52.492;13.420;2023-11-19T11:21:46;8.60;;;3.38;;
81221;SDS011;70691;52.492;13.420;2023-11-19T11:24:53;12.88;;;2.92;;
81221;SDS011;70691;52.492;13.420;2023-11-19T11:33:06;8.20;;;3.15;;
81221;SDS011;70691;52.492;13.420;2023-11-19T11:38:10;6.78;;;2.70;;
81221;SDS011;70691;52.492;13.420;2023-11-19T11:40:36;7.85;;;3.13;;
81221;SDS011;70691;52.492;13.420;2023-11-19T11:43:02;12.60;;;3.67;;
81221;SDS011;70691;52.492;13.420;2023-11-19T11:45:40;13.93;;;2.78;;
81221;SDS011;70691;52.492;13.420;2023-11-19T11:48:17;11.82;;;2.55;;
81221;SDS011;70691;52.492;13.420;2023-11-19T11:50:50;10.65;;;3.20;;
81221;SDS011;70691;52.492;13.420;2023-11-19T11:53:18;13.18;;;2.65;;
81221;SDS011;70691;52.492;13.420;2023-11-19T11:58:13;11.15;;;3.33;;
81221;SDS011;70691;52.492;13.420;2023-11-19T12:00:40;10.48;;;2.58;;
81221;SDS011;70691;52.492;13.420;2023-11-19T12:03:07;13.13;;;2.90;;
81221;SDS011;70691;52.492;13.420;2023-11-19T12:05:33;9.23;;;2.95;;
81221;SDS011;70691;52.492;13.420;2023-11-19T12:08:12;11.43;;;2.80;;
81221;SDS011;70691;52.492;13.420;2023-11-19T12:13:13;13.50;;;4.00;;
81221;SDS011;70691;52.492;13.420;2023-11-19T12:18:27;9.10;;;2.88;;
81221;SDS011;70691;52.492;13.420;2023-11-19T12:20:57;19.08;;;3.10;;
81221;SDS011;70691;52.492;13.420;2023-11-19T12:23:25;11.07;;;2.97;;
81221;SDS011;70691;52.492;13.420;2023-11-19T12:25:51;13.07;;;3.40;;
81221;SDS011;70691;52.492;13.420;2023-11-19T12:28:17;14.05;;;3.35;;
81221;SDS011;70691;52.492;13.420;2023-11-19T12:30:44;15.18;;;2.78;;
81221;SDS011;70691;52.492;13.420;2023-11-19T12:33:11;13.00;;;3.88;;
81221;SDS011;70691;52.492;13.420;2023-11-19T12:35:41;14.60;;;2.80;;
81221;SDS011;70691;52.492;13.420;2023-11-19T12:38:08;19.35;;;3.45;;
81221;SDS011;70691;52.492;13.420;2023-11-19T12:40:43;12.20;;;3.00;;
81221;SDS011;70691;52.492;13.420;2023-11-19T12:43:08;14.05;;;3.10;;
81221;SDS011;70691;52.492;13.420;2023-11-19T12:45:35;15.77;;;3.85;;
81221;SDS011;70691;52.492;13.420;2023-11-19T12:48:04;11.10;;;2.83;;
81221;SDS011;70691;52.492;13.420;2023-11-19T12:50:49;12.07;;;3.22;;
81221;SDS011;70691;52.492;13.420;2023-11-19T12:53:23;18.77;;;4.15;;
81221;SDS011;70691;52.492;13.420;2023-11-19T12:55:50;14.18;;;3.67;;
81221;SDS011;70691;52.492;13.420;2023-11-19T12:58:32;16.90;;;3.85;;
81221;SDS011;70691;52.492;13.420;2023-11-19T13:01:00;20.25;;;3.78;;
81221;SDS011;70691;52.492;13.420;2023-11-19T13:03:30;15.55;;;3.03;;
81221;SDS011;70691;52.492;13.420;2023-11-19T13:08:36;14.65;;;3.33;;
81221;SDS011;70691;52.492;13.420;2023-11-19T13:11:03;23.30;;;4.43;;
81221;SDS011;70691;52.492;13.420;2023-11-19T13:13:29;16.33;;;3.55;;
81221;SDS011;70691;52.492;13.420;2023-11-19T13:16:02;23.15;;;4.40;;
81221;SDS011;70691;52.492;13.420;2023-11-19T13:18:30;25.42;;;5.32;;
81221;SDS011;70691;52.492;13.420;2023-11-19T13:20:56;22.23;;;4.03;;
81221;SDS011;70691;52.492;13.420;2023-11-19T13:23:24;17.73;;;4.20;;
81221;SDS011;70691;52.492;13.420;2023-11-19T13:25:50;13.43;;;3.35;;
81221;SDS011;70691;52.492;13.420;2023-11-19T13:28:16;16.88;;;3.88;;
81221;SDS011;70691;52.492;13.420;2023-11-19T13:30:41;15.65;;;4.65;;
81221;SDS011;70691;52.492;13.420;2023-11-19T13:33:07;18.42;;;4.47;;
81221;SDS011;70691;52.492;13.420;2023-11-19T13:35:35;14.35;;;4.28;;
81221;SDS011;70691;52.492;13.420;2023-11-19T13:38:01;16.02;;;4.00;;
81221;SDS011;70691;52.492;13.420;2023-11-19T13:40:27;12.30;;;3.60;;
81221;SDS011;70691;52.492;13.420;2023-11-19T13:42:53;13.90;;;4.13;;
81221;SDS011;70691;52.492;13.420;2023-11-19T13:45:18;17.73;;;4.60;;
81221;SDS011;70691;52.492;13.420;2023-11-19T13:47:45;19.50;;;4.22;;
81221;SDS011;70691;52.492;13.420;2023-11-19T13:50:15;19.55;;;5.18;;
81221;SDS011;70691;52.492;13.420;2023-11-19T13:52:45;23.27;;;3.70;;
81221;SDS011;70691;52.492;13.420;2023-11-19T13:55:11;18.50;;;3.55;;
81221;SDS011;70691;52.492;13.420;2023-11-19T13:57:40;18.90;;;3.95;;
81221;SDS011;70691;52.492;13.420;2023-11-19T14:00:10;27.92;;;4.68;;
81221;SDS011;70691;52.492;13.420;2023-11-19T14:02:47;15.10;;;4.05;;
81221;SDS011;70691;52.492;13.420;2023-11-19T14:05:13;16.60;;;3.92;;
81221;SDS011;70691;52.492;13.420;2023-11-19T14:07:42;12.07;;;3.47;;
81221;SDS011;70691;52.492;13.420;2023-11-19T14:10:08;17.15;;;3.40;;
81221;SDS011;70691;52.492;13.420;2023-11-19T14:12:36;14.57;;;3.70;;
81221;SDS011;70691;52.492;13.420;2023-11-19T14:15:05;19.80;;;4.27;;
81221;SDS011;70691;52.492;13.420;2023-11-19T14:17:32;23.65;;;3.90;;
81221;SDS011;70691;52.492;13.420;2023-11-19T14:20:04;23.58;;;4.43;;
81221;SDS011;70691;52.492;13.420;2023-11-19T14:22:37;19.80;;;3.63;;
81221;SDS011;70691;52.492;13.420;2023-11-19T14:25:10;14.35;;;4.00;;
81221;SDS011;70691;52.492;13.420;2023-11-19T14:27:37;25.27;;;4.43;;
81221;SDS011;70691;52.492;13.420;2023-11-19T14:30:07;15.95;;;4.65;;
81221;SDS011;70691;52.492;13.420;2023-11-19T14:32:38;12.75;;;3.08;;
81221;SDS011;70691;52.492;13.420;2023-11-19T14:35:05;21.63;;;5.05;;
81221;SDS011;70691;52.492;13.420;2023-11-19T14:37:33;23.15;;;3.85;;
81221;SDS011;70691;52.492;13.420;2023-11-19T14:39:59;21.33;;;3.80;;
81221;SDS011;70691;52.492;13.420;2023-11-19T14:42:25;26.83;;;4.40;;
81221;SDS011;70691;52.492;13.420;2023-11-19T14:44:51;24.63;;;4.68;;
81221;SDS011;70691;52.492;13.420;2023-11-19T14:47:20;19.95;;;3.72;;
81221;SDS011;70691;52.492;13.420;2023-11-19T14:49:46;16.52;;;3.60;;
81221;SDS011;70691;52.492;13.420;2023-11-19T14:52:12;15.00;;;3.40;;